sensor_id;sensor_type;location;lat;lon;timestamp;P1;durP1;ratioP1;P2;durP2;ratioP2
29774;SDS011;16676;51.202;6.774;2023-11-21T00:02:52;4.50;;;1.90;;
29774;SDS011;16676;51.202;6.774;2023-11-21T00:06:54;4.72;;;1.83;;
29774;SDS011;16676;51.202;6.774;2023-11-21T00:10:57;3.83;;;1.73;;
29774;SDS011;16676;51.202;6.774;2023-11-21T00:15:00;3.75;;;2.03;;
29774;SDS011;16676;51.202;6.774;2023-11-21T00:19:03;2.72;;;1.30;;
29774;SDS011;16676;51.202;6.774;2023-11-21T00:23:05;3.92;;;1.60;;
29774;SDS011;16676;51.202;6.774;2023-11-21T00:27:08;3.17;;;1.63;;
29774;SDS011;16676;51.202;6.774;2023-11-21T00:31:10;3.55;;;1.73;;
29774;SDS011;16676;51.202;6.774;2023-11-21T00:35:12;5.53;;;2.30;;
29774;SDS011;16676;51.202;6.774;2023-11-21T00:39:14;5.38;;;1.80;;
29774;SDS011;16676;51.202;6.774;2023-11-21T00:43:17;4.30;;;1.85;;
29774;SDS011;16676;51.202;6.774;2023-11-21T00:47:19;3.78;;;1.60;;
29774;SDS011;16676;51.202;6.774;2023-11-21T00:51:22;3.85;;;1.80;;
29774;SDS011;16676;51.202;6.774;2023-11-21T00:55:24;3.05;;;1.75;;
29774;SDS011;16676;51.202;6.774;2023-11-21T00:59:29;2.72;;;1.58;;
29774;SDS011;16676;51.202;6.774;2023-11-21T01:03:31;4.10;;;1.85;;
29774;SDS011;16676;51.202;6.774;2023-11-21T01:07:33;3.70;;;1.40;;
29774;SDS011;16676;51.202;6.774;2023-11-21T01:11:37;3.78;;;1.85;;
29774;SDS011;16676;51.202;6.774;2023-11-21T01:15:40;4.72;;;1.90;;
29774;SDS011;16676;51.202;6.774;2023-11-21T01:19:42;4.63;;;1.58;;
29774;SDS011;16676;51.202;6.774;2023-11-21T01:23:44;3.33;;;1.67;;
29774;SDS011;16676;51.202;6.774;2023-11-21T01:27:47;3.20;;;1.70;;
29774;SDS011;16676;51.202;6.774;2023-11-21T01:31:51;3.92;;;1.58;;
29774;SDS011;16676;51.202;6.774;2023-11-21T01:35:53;3.35;;;1.70;;
29774;SDS011;16676;51.202;6.774;2023-11-21T01:39:55;4.88;;;1.63;;
29774;SDS011;16676;51.202;6.774;2023-11-21T01:43:57;4.25;;;1.73;;
29774;SDS011;16676;51.202;6.774;2023-11-21T01:48:01;3.00;;;1.42;;
29774;SDS011;16676;51.202;6.774;2023-11-21T01:52:06;3.13;;;1.50;;
29774;SDS011;16676;51.202;6.774;2023-11-21T01:56:11;2.63;;;1.45;;
29774;SDS011;16676;51.202;6.774;2023-11-21T02:00:13;3.42;;;1.52;;
29774;SDS011;16676;51.202;6.774;2023-11-21T02:04:17;3.45;;;1.50;;
29774;SDS011;16676;51.202;6.774;2023-11-21T02:08:21;4.18;;;1.40;;
29774;SDS011;16676;51.202;6.774;2023-11-21T02:12:23;2.30;;;1.30;;
29774;SDS011;16676;51.202;6.774;2023-11-21T02:16:26;2.72;;;1.40;;
29774;SDS011;16676;51.202;6.774;2023-11-21T02:20:32;2.65;;;1.50;;
29774;SDS011;16676;51.202;6.774;2023-11-21T02:24:40;3.03;;;1.50;;
29774;SDS011;16676;51.202;6.774;2023-11-21T02:28:43;2.78;;;1.42;;
29774;SDS011;16676;51.202;6.774;2023-11-21T02:32:45;3.10;;;1.58;;
29774;SDS011;16676;51.202;6.774;2023-11-21T02:36:48;3.30;;;1.52;;
29774;SDS011;16676;51.202;6.774;2023-11-21T02:40:52;3.38;;;1.50;;
29774;SDS011;16676;51.202;6.774;2023-11-21T02:44:54;3.05;;;1.58;;
29774;SDS011;16676;51.202;6.774;2023-11-21T02:48:57;3.25;;;1.52;;
29774;SDS011;16676;51.202;6.774;2023-11-21T02:52:59;2.72;;;1.60;;
29774;SDS011;16676;51.202;6.774;2023-11-21T02:57:03;3.45;;;1.40;;
29774;SDS011;16676;51.202;6.774;2023-11-21T03:01:06;2.08;;;1.38;;
29774;SDS011;16676;51.202;6.774;2023-11-21T03:05:08;3.25;;;1.95;;
29774;SDS011;16676;51.202;6.774;2023-11-21T03:09:10;2.25;;;1.48;;
29774;SDS011;16676;51.202;6.774;2023-11-21T03:13:14;3.00;;;1.48;;
29774;SDS011;16676;51.202;6.774;2023-11-21T03:17:16;2.65;;;1.38;;
29774;SDS011;16676;51.202;6.774;2023-11-21T03:21:18;2.05;;;1.30;;
29774;SDS011;16676;51.202;6.774;2023-11-21T03:25:20;2.65;;;1.20;;
29774;SDS011;16676;51.202;6.774;2023-11-21T03:29:25;1.85;;;1.15;;
29774;SDS011;16676;51.202;6.774;2023-11-21T03:33:27;2.13;;;1.50;;
29774;SDS011;16676;51.202;6.774;2023-11-21T03:37:29;3.22;;;1.67;;
29774;SDS011;16676;51.202;6.774;2023-11-21T03:41:31;2.53;;;1.25;;
29774;SDS011;16676;51.202;6.774;2023-11-21T03:45:36;2.70;;;1.40;;
29774;SDS011;16676;51.202;6.774;2023-11-21T03:49:40;2.72;;;1.40;;
29774;SDS011;16676;51.202;6.774;2023-11-21T03:53:42;2.90;;;1.25;;
29774;SDS011;16676;51.202;6.774;2023-11-21T03:57:44;2.72;;;1.42;;
29774;SDS011;16676;51.202;6.774;2023-11-21T04:01:47;2.28;;;1.10;;
29774;SDS011;16676;51.202;6.774;2023-11-21T04:05:49;2.28;;;1.40;;
29774;SDS011;16676;51.202;6.774;2023-11-21T04:09:51;2.50;;;1.30;;
29774;SDS011;16676;51.202;6.774;2023-11-21T04:13:53;1.98;;;1.20;;
29774;SDS011;16676;51.202;6.774;2023-11-21T04:17:57;1.98;;;1.20;;
29774;SDS011;16676;51.202;6.774;2023-11-21T04:21:59;1.75;;;1.27;;
29774;SDS011;16676;51.202;6.774;2023-11-21T04:26:01;2.08;;;1.10;;
29774;SDS011;16676;51.202;6.774;2023-11-21T04:30:03;2.72;;;1.42;;
29774;SDS011;16676;51.202;6.774;2023-11-21T04:34:07;2.63;;;1.40;;
29774;SDS011;16676;51.202;6.774;2023-11-21T04:38:09;2.45;;;1.30;;
29774;SDS011;16676;51.202;6.774;2023-11-21T04:42:11;2.00;;;1.20;;
29774;SDS011;16676;51.202;6.774;2023-11-21T04:46:14;1.90;;;1.20;;
29774;SDS011;16676;51.202;6.774;2023-11-21T04:50:17;3.95;;;1.40;;
29774;SDS011;16676;51.202;6.774;2023-11-21T04:54:19;2.67;;;1.20;;
29774;SDS011;16676;51.202;6.774;2023-11-21T04:58:21;3.58;;;1.40;;
29774;SDS011;16676;51.202;6.774;2023-11-21T05:02:23;2.85;;;1.17;;
29774;SDS011;16676;51.202;6.774;2023-11-21T05:06:26;3.60;;;1.10;;
29774;SDS011;16676;51.202;6.774;2023-11-21T05:10:28;1.80;;;1.30;;
29774;SDS011;16676;51.202;6.774;2023-11-21T05:14:30;2.33;;;1.33;;
29774;SDS011;16676;51.202;6.774;2023-11-21T05:18:32;2.58;;;1.02;;
29774;SDS011;16676;51.202;6.774;2023-11-21T05:22:36;2.30;;;1.23;;
29774;SDS011;16676;51.202;6.774;2023-11-21T05:26:38;1.23;;;0.90;;
29774;SDS011;16676;51.202;6.774;2023-11-21T05:30:40;1.67;;;1.00;;
29774;SDS011;16676;51.202;6.774;2023-11-21T05:34:42;2.00;;;1.13;;
29774;SDS011;16676;51.202;6.774;2023-11-21T05:38:45;1.10;;;0.90;;
29774;SDS011;16676;51.202;6.774;2023-11-21T05:42:47;1.50;;;1.15;;
29774;SDS011;16676;51.202;6.774;2023-11-21T05:46:51;1.55;;;0.88;;
29774;SDS011;16676;51.202;6.774;2023-11-21T05:50:53;2.42;;;1.30;;
29774;SDS011;16676;51.202;6.774;2023-11-21T05:54:57;3.08;;;1.42;;
29774;SDS011;16676;51.202;6.774;2023-11-21T05:58:59;2.95;;;1.15;;
29774;SDS011;16676;51.202;6.774;2023-11-21T06:03:02;2.63;;;1.40;;
29774;SDS011;16676;51.202;6.774;2023-11-21T06:07:06;3.15;;;1.33;;
29774;SDS011;16676;51.202;6.774;2023-11-21T06:11:10;2.67;;;1.55;;
29774;SDS011;16676;51.202;6.774;2023-11-21T06:15:12;3.33;;;1.55;;
29774;SDS011;16676;51.202;6.774;2023-11-21T06:19:14;2.80;;;1.25;;
29774;SDS011;16676;51.202;6.774;2023-11-21T06:23:16;2.00;;;1.20;;
29774;SDS011;16676;51.202;6.774;2023-11-21T06:27:20;5.15;;;1.38;;
29774;SDS011;16676;51.202;6.774;2023-11-21T06:31:22;2.58;;;1.27;;
29774;SDS011;16676;51.202;6.774;2023-11-21T06:35:24;2.85;;;1.40;;
29774;SDS011;16676;51.202;6.774;2023-11-21T06:39:27;3.38;;;1.50;;
29774;SDS011;16676;51.202;6.774;2023-11-21T06:43:31;5.38;;;1.55;;
29774;SDS011;16676;51.202;6.774;2023-11-21T06:47:33;3.85;;;1.40;;
29774;SDS011;16676;51.202;6.774;2023-11-21T06:51:35;1.88;;;1.05;;
29774;SDS011;16676;51.202;6.774;2023-11-21T06:55:37;1.73;;;0.98;;
29774;SDS011;16676;51.202;6.774;2023-11-21T06:59:40;1.98;;;1.10;;
29774;SDS011;16676;51.202;6.774;2023-11-21T07:03:42;3.25;;;1.10;;
29774;SDS011;16676;51.202;6.774;2023-11-21T07:07:44;3.72;;;1.13;;
29774;SDS011;16676;51.202;6.774;2023-11-21T07:11:46;1.67;;;0.80;;
29774;SDS011;16676;51.202;6.774;2023-11-21T07:15:49;3.90;;;1.45;;
29774;SDS011;16676;51.202;6.774;2023-11-21T07:19:52;6.55;;;3.65;;
29774;SDS011;16676;51.202;6.774;2023-11-21T07:23:55;23.08;;;10.48;;
29774;SDS011;16676;51.202;6.774;2023-11-21T07:27:57;28.17;;;12.85;;
29774;SDS011;16676;51.202;6.774;2023-11-21T07:32:00;23.17;;;12.70;;
29774;SDS011;16676;51.202;6.774;2023-11-21T07:36:02;28.92;;;13.40;;
29774;SDS011;16676;51.202;6.774;2023-11-21T07:40:05;28.67;;;14.20;;
29774;SDS011;16676;51.202;6.774;2023-11-21T07:44:09;26.85;;;13.02;;
29774;SDS011;16676;51.202;6.774;2023-11-21T07:48:12;24.65;;;14.52;;
29774;SDS011;16676;51.202;6.774;2023-11-21T07:52:14;28.58;;;15.18;;
29774;SDS011;16676;51.202;6.774;2023-11-21T07:56:16;27.40;;;15.75;;
29774;SDS011;16676;51.202;6.774;2023-11-21T08:00:18;33.05;;;14.73;;
29774;SDS011;16676;51.202;6.774;2023-11-21T08:04:22;28.02;;;13.48;;
29774;SDS011;16676;51.202;6.774;2023-11-21T08:08:24;21.55;;;11.80;;
29774;SDS011;16676;51.202;6.774;2023-11-21T08:12:27;25.58;;;11.88;;
29774;SDS011;16676;51.202;6.774;2023-11-21T08:16:29;24.10;;;9.95;;
29774;SDS011;16676;51.202;6.774;2023-11-21T08:20:33;20.40;;;8.70;;
29774;SDS011;16676;51.202;6.774;2023-11-21T08:24:38;15.90;;;8.23;;
29774;SDS011;16676;51.202;6.774;2023-11-21T08:28:40;16.65;;;7.88;;
29774;SDS011;16676;51.202;6.774;2023-11-21T08:32:42;12.50;;;7.38;;
29774;SDS011;16676;51.202;6.774;2023-11-21T08:36:46;13.63;;;6.60;;
29774;SDS011;16676;51.202;6.774;2023-11-21T08:40:48;13.82;;;6.05;;
29774;SDS011;16676;51.202;6.774;2023-11-21T08:44:50;9.93;;;5.18;;
29774;SDS011;16676;51.202;6.774;2023-11-21T08:48:52;11.60;;;5.35;;
29774;SDS011;16676;51.202;6.774;2023-11-21T08:52:55;11.88;;;5.22;;
29774;SDS011;16676;51.202;6.774;2023-11-21T08:56:57;10.40;;;4.65;;
29774;SDS011;16676;51.202;6.774;2023-11-21T09:00:59;11.10;;;4.50;;
29774;SDS011;16676;51.202;6.774;2023-11-21T09:05:01;9.15;;;3.97;;
29774;SDS011;16676;51.202;6.774;2023-11-21T09:09:05;11.45;;;3.67;;
29774;SDS011;16676;51.202;6.774;2023-11-21T09:13:08;10.10;;;4.45;;
29774;SDS011;16676;51.202;6.774;2023-11-21T09:17:10;9.90;;;3.85;;
29774;SDS011;16676;51.202;6.774;2023-11-21T09:21:12;6.40;;;3.20;;
29774;SDS011;16676;51.202;6.774;2023-11-21T09:25:15;9.05;;;3.33;;
29774;SDS011;16676;51.202;6.774;2023-11-21T09:29:18;6.20;;;2.85;;
29774;SDS011;16676;51.202;6.774;2023-11-21T09:33:20;4.50;;;2.88;;
29774;SDS011;16676;51.202;6.774;2023-11-21T09:37:25;7.47;;;2.72;;
29774;SDS011;16676;51.202;6.774;2023-11-21T09:41:31;6.22;;;2.90;;
29774;SDS011;16676;51.202;6.774;2023-11-21T09:45:42;7.90;;;3.20;;
29774;SDS011;16676;51.202;6.774;2023-11-21T09:49:47;6.05;;;2.88;;
29774;SDS011;16676;51.202;6.774;2023-11-21T09:53:50;6.05;;;2.63;;
29774;SDS011;16676;51.202;6.774;2023-11-21T09:57:54;7.93;;;2.92;;
29774;SDS011;16676;51.202;6.774;2023-11-21T10:01:57;5.80;;;2.60;;
29774;SDS011;16676;51.202;6.774;2023-11-21T10:06:00;6.15;;;2.42;;
29774;SDS011;16676;51.202;6.774;2023-11-21T10:10:02;5.97;;;2.72;;
29774;SDS011;16676;51.202;6.774;2023-11-21T10:14:07;5.25;;;2.67;;
29774;SDS011;16676;51.202;6.774;2023-11-21T10:18:12;5.07;;;2.20;;
29774;SDS011;16676;51.202;6.774;2023-11-21T10:22:15;5.45;;;2.60;;
29774;SDS011;16676;51.202;6.774;2023-11-21T10:26:17;6.25;;;2.88;;
29774;SDS011;16676;51.202;6.774;2023-11-21T10:30:22;3.72;;;2.33;;
29774;SDS011;16676;51.202;6.774;2023-11-21T10:34:29;6.00;;;2.60;;
29774;SDS011;16676;51.202;6.774;2023-11-21T10:38:33;5.30;;;2.53;;
29774;SDS011;16676;51.202;6.774;2023-11-21T10:42:43;5.43;;;2.38;;
29774;SDS011;16676;51.202;6.774;2023-11-21T10:46:46;5.38;;;2.40;;
29774;SDS011;16676;51.202;6.774;2023-11-21T10:50:50;5.03;;;2.58;;
29774;SDS011;16676;51.202;6.774;2023-11-21T10:54:52;8.85;;;2.33;;
29774;SDS011;16676;51.202;6.774;2023-11-21T10:58:54;7.78;;;2.40;;
29774;SDS011;16676;51.202;6.774;2023-11-21T11:02:59;4.90;;;2.30;;
29774;SDS011;16676;51.202;6.774;2023-11-21T11:07:02;5.25;;;2.20;;
29774;SDS011;16676;51.202;6.774;2023-11-21T11:11:05;3.97;;;2.00;;
29774;SDS011;16676;51.202;6.774;2023-11-21T11:15:07;5.30;;;2.15;;
29774;SDS011;16676;51.202;6.774;2023-11-21T11:19:11;3.47;;;2.00;;
29774;SDS011;16676;51.202;6.774;2023-11-21T11:23:20;4.32;;;2.42;;
29774;SDS011;16676;51.202;6.774;2023-11-21T11:27:40;4.03;;;2.10;;
29774;SDS011;16676;51.202;6.774;2023-11-21T11:31:54;5.07;;;2.50;;
29774;SDS011;16676;51.202;6.774;2023-11-21T11:36:09;6.40;;;2.53;;
29774;SDS011;16676;51.202;6.774;2023-11-21T11:40:18;4.93;;;2.30;;
29774;SDS011;16676;51.202;6.774;2023-11-21T11:48:59;3.08;;;1.85;;
29774;SDS011;16676;51.202;6.774;2023-11-21T11:53:14;4.50;;;2.40;;
29774;SDS011;16676;51.202;6.774;2023-11-21T11:57:18;3.75;;;2.08;;
29774;SDS011;16676;51.202;6.774;2023-11-21T12:01:20;3.40;;;1.90;;
29774;SDS011;16676;51.202;6.774;2023-11-21T12:05:23;4.10;;;2.00;;
29774;SDS011;16676;51.202;6.774;2023-11-21T12:09:29;4.90;;;2.20;;
29774;SDS011;16676;51.202;6.774;2023-11-21T12:13:32;3.40;;;2.10;;
29774;SDS011;16676;51.202;6.774;2023-11-21T12:17:35;5.72;;;2.10;;
29774;SDS011;16676;51.202;6.774;2023-11-21T12:21:37;12.68;;;1.98;;
29774;SDS011;16676;51.202;6.774;2023-11-21T12:25:40;3.47;;;2.15;;
29774;SDS011;16676;51.202;6.774;2023-11-21T12:29:42;3.15;;;2.28;;
29774;SDS011;16676;51.202;6.774;2023-11-21T12:33:44;6.10;;;2.08;;
29774;SDS011;16676;51.202;6.774;2023-11-21T12:37:46;4.07;;;2.03;;
29774;SDS011;16676;51.202;6.774;2023-11-21T12:41:50;4.93;;;2.28;;
29774;SDS011;16676;51.202;6.774;2023-11-21T12:46:04;4.43;;;2.50;;
29774;SDS011;16676;51.202;6.774;2023-11-21T12:50:07;3.50;;;2.10;;
29774;SDS011;16676;51.202;6.774;2023-11-21T12:58:17;37.03;;;19.13;;
29774;SDS011;16676;51.202;6.774;2023-11-21T13:02:25;51.20;;;26.40;;
29774;SDS011;16676;51.202;6.774;2023-11-21T13:06:27;43.85;;;22.10;;
29774;SDS011;16676;51.202;6.774;2023-11-21T13:10:34;35.85;;;15.90;;
29774;SDS011;16676;51.202;6.774;2023-11-21T13:14:38;27.15;;;12.82;;
29774;SDS011;16676;51.202;6.774;2023-11-21T13:18:41;24.80;;;12.35;;
29774;SDS011;16676;51.202;6.774;2023-11-21T13:22:45;25.60;;;11.63;;
29774;SDS011;16676;51.202;6.774;2023-11-21T13:26:50;24.95;;;11.50;;
29774;SDS011;16676;51.202;6.774;2023-11-21T13:30:54;25.80;;;11.80;;
29774;SDS011;16676;51.202;6.774;2023-11-21T13:34:57;22.17;;;11.15;;
29774;SDS011;16676;51.202;6.774;2023-11-21T13:39:00;25.42;;;11.18;;
29774;SDS011;16676;51.202;6.774;2023-11-21T13:43:07;21.75;;;10.50;;
29774;SDS011;16676;51.202;6.774;2023-11-21T13:47:11;24.20;;;10.30;;
29774;SDS011;16676;51.202;6.774;2023-11-21T13:51:13;21.85;;;10.43;;
29774;SDS011;16676;51.202;6.774;2023-11-21T13:55:17;18.30;;;8.63;;
29774;SDS011;16676;51.202;6.774;2023-11-21T13:59:19;18.05;;;8.98;;
29774;SDS011;16676;51.202;6.774;2023-11-21T14:03:26;19.77;;;8.95;;
29774;SDS011;16676;51.202;6.774;2023-11-21T14:07:39;19.48;;;9.38;;
29774;SDS011;16676;51.202;6.774;2023-11-21T14:11:49;20.52;;;9.18;;
29774;SDS011;16676;51.202;6.774;2023-11-21T14:15:52;17.42;;;8.63;;
29774;SDS011;16676;51.202;6.774;2023-11-21T14:20:00;16.42;;;8.50;;
29774;SDS011;16676;51.202;6.774;2023-11-21T14:24:05;18.50;;;8.23;;
29774;SDS011;16676;51.202;6.774;2023-11-21T14:28:09;20.92;;;8.90;;
29774;SDS011;16676;51.202;6.774;2023-11-21T14:32:12;15.35;;;8.35;;
29774;SDS011;16676;51.202;6.774;2023-11-21T14:36:15;18.13;;;8.32;;
29774;SDS011;16676;51.202;6.774;2023-11-21T14:40:17;14.25;;;7.63;;
29774;SDS011;16676;51.202;6.774;2023-11-21T14:44:24;18.90;;;8.07;;
29774;SDS011;16676;51.202;6.774;2023-11-21T14:48:29;16.77;;;7.40;;
29774;SDS011;16676;51.202;6.774;2023-11-21T14:52:43;14.68;;;7.80;;
29774;SDS011;16676;51.202;6.774;2023-11-21T14:56:56;12.98;;;7.30;;
29774;SDS011;16676;51.202;6.774;2023-11-21T15:00:58;12.35;;;7.22;;
29774;SDS011;16676;51.202;6.774;2023-11-21T15:05:01;15.43;;;7.90;;
29774;SDS011;16676;51.202;6.774;2023-11-21T15:09:04;17.20;;;7.63;;
29774;SDS011;16676;51.202;6.774;2023-11-21T15:13:35;19.42;;;7.75;;
29774;SDS011;16676;51.202;6.774;2023-11-21T15:17:37;13.95;;;7.47;;
29774;SDS011;16676;51.202;6.774;2023-11-21T15:21:43;20.70;;;8.43;;
29774;SDS011;16676;51.202;6.774;2023-11-21T15:25:48;15.23;;;7.72;;
29774;SDS011;16676;51.202;6.774;2023-11-21T15:29:49;14.00;;;6.85;;
29774;SDS011;16676;51.202;6.774;2023-11-21T15:33:52;14.77;;;7.20;;
29774;SDS011;16676;51.202;6.774;2023-11-21T15:37:54;12.20;;;6.85;;
29774;SDS011;16676;51.202;6.774;2023-11-21T15:41:59;13.25;;;7.00;;
29774;SDS011;16676;51.202;6.774;2023-11-21T15:46:02;14.85;;;7.18;;
29774;SDS011;16676;51.202;6.774;2023-11-21T15:50:08;10.63;;;6.72;;
29774;SDS011;16676;51.202;6.774;2023-11-21T15:54:10;15.80;;;6.85;;
29774;SDS011;16676;51.202;6.774;2023-11-21T15:58:14;12.73;;;6.38;;
29774;SDS011;16676;51.202;6.774;2023-11-21T16:02:15;12.35;;;6.32;;
29774;SDS011;16676;51.202;6.774;2023-11-21T16:06:17;11.48;;;6.00;;
29774;SDS011;16676;51.202;6.774;2023-11-21T16:10:19;19.30;;;8.70;;
29774;SDS011;16676;51.202;6.774;2023-11-21T16:14:23;13.50;;;8.30;;
29774;SDS011;16676;51.202;6.774;2023-11-21T16:18:27;10.43;;;7.20;;
29774;SDS011;16676;51.202;6.774;2023-11-21T16:22:29;11.88;;;7.93;;
29774;SDS011;16676;51.202;6.774;2023-11-21T16:26:32;10.82;;;6.82;;
29774;SDS011;16676;51.202;6.774;2023-11-21T16:30:37;8.50;;;6.03;;
29774;SDS011;16676;51.202;6.774;2023-11-21T16:34:39;8.70;;;6.32;;
29774;SDS011;16676;51.202;6.774;2023-11-21T16:38:41;8.90;;;5.68;;
29774;SDS011;16676;51.202;6.774;2023-11-21T16:42:43;8.55;;;5.90;;
29774;SDS011;16676;51.202;6.774;2023-11-21T16:46:46;7.57;;;5.72;;
29774;SDS011;16676;51.202;6.774;2023-11-21T16:50:50;8.15;;;5.30;;
29774;SDS011;16676;51.202;6.774;2023-11-21T16:54:52;6.75;;;5.53;;
29774;SDS011;16676;51.202;6.774;2023-11-21T16:58:54;6.35;;;5.47;;
29774;SDS011;16676;51.202;6.774;2023-11-21T17:02:57;7.35;;;5.40;;
29774;SDS011;16676;51.202;6.774;2023-11-21T17:07:00;7.60;;;6.05;;
29774;SDS011;16676;51.202;6.774;2023-11-21T17:11:02;8.80;;;5.80;;
29774;SDS011;16676;51.202;6.774;2023-11-21T17:15:09;6.28;;;4.88;;
29774;SDS011;16676;51.202;6.774;2023-11-21T17:19:12;7.93;;;4.50;;
29774;SDS011;16676;51.202;6.774;2023-11-21T17:23:14;13.90;;;5.47;;
29774;SDS011;16676;51.202;6.774;2023-11-21T17:27:16;9.70;;;5.70;;
29774;SDS011;16676;51.202;6.774;2023-11-21T17:31:18;9.45;;;5.20;;
29774;SDS011;16676;51.202;6.774;2023-11-21T17:35:21;6.35;;;4.85;;
29774;SDS011;16676;51.202;6.774;2023-11-21T17:39:23;12.75;;;5.63;;
29774;SDS011;16676;51.202;6.774;2023-11-21T17:43:25;8.57;;;5.72;;
29774;SDS011;16676;51.202;6.774;2023-11-21T17:47:27;11.23;;;6.25;;
29774;SDS011;16676;51.202;6.774;2023-11-21T17:51:30;8.55;;;5.15;;
29774;SDS011;16676;51.202;6.774;2023-11-21T17:55:33;10.85;;;6.03;;
29774;SDS011;16676;51.202;6.774;2023-11-21T17:59:36;9.38;;;6.32;;
29774;SDS011;16676;51.202;6.774;2023-11-21T18:03:39;12.45;;;7.03;;
29774;SDS011;16676;51.202;6.774;2023-11-21T18:07:43;9.30;;;6.25;;
29774;SDS011;16676;51.202;6.774;2023-11-21T18:11:45;9.15;;;5.65;;
29774;SDS011;16676;51.202;6.774;2023-11-21T18:15:47;7.03;;;4.70;;
29774;SDS011;16676;51.202;6.774;2023-11-21T18:19:48;7.07;;;4.80;;
29774;SDS011;16676;51.202;6.774;2023-11-21T18:23:56;6.68;;;4.90;;
29774;SDS011;16676;51.202;6.774;2023-11-21T18:27:58;5.88;;;4.00;;
29774;SDS011;16676;51.202;6.774;2023-11-21T18:32:00;6.53;;;3.90;;
29774;SDS011;16676;51.202;6.774;2023-11-21T18:36:06;5.03;;;3.50;;
29774;SDS011;16676;51.202;6.774;2023-11-21T18:40:10;10.23;;;3.50;;
29774;SDS011;16676;51.202;6.774;2023-11-21T18:44:13;5.72;;;3.42;;
29774;SDS011;16676;51.202;6.774;2023-11-21T18:48:15;6.07;;;3.65;;
29774;SDS011;16676;51.202;6.774;2023-11-21T18:52:19;11.05;;;5.13;;
29774;SDS011;16676;51.202;6.774;2023-11-21T18:56:24;16.98;;;5.80;;
29774;SDS011;16676;51.202;6.774;2023-11-21T19:00:29;8.68;;;5.75;;
29774;SDS011;16676;51.202;6.774;2023-11-21T19:04:31;9.48;;;5.45;;
29774;SDS011;16676;51.202;6.774;2023-11-21T19:08:33;7.38;;;5.32;;
29774;SDS011;16676;51.202;6.774;2023-11-21T19:12:37;11.02;;;4.95;;
29774;SDS011;16676;51.202;6.774;2023-11-21T19:16:39;8.25;;;4.25;;
29774;SDS011;16676;51.202;6.774;2023-11-21T19:20:41;11.85;;;4.07;;
29774;SDS011;16676;51.202;6.774;2023-11-21T19:24:43;8.07;;;4.22;;
29774;SDS011;16676;51.202;6.774;2023-11-21T19:28:47;5.72;;;3.60;;
29774;SDS011;16676;51.202;6.774;2023-11-21T19:32:48;5.07;;;3.63;;
29774;SDS011;16676;51.202;6.774;2023-11-21T19:36:51;6.80;;;3.63;;
29774;SDS011;16676;51.202;6.774;2023-11-21T19:40:53;13.23;;;4.10;;
29774;SDS011;16676;51.202;6.774;2023-11-21T19:44:56;7.25;;;3.60;;
29774;SDS011;16676;51.202;6.774;2023-11-21T19:48:59;10.70;;;3.65;;
29774;SDS011;16676;51.202;6.774;2023-11-21T19:53:02;6.35;;;2.90;;
29774;SDS011;16676;51.202;6.774;2023-11-21T19:57:05;4.80;;;3.08;;
29774;SDS011;16676;51.202;6.774;2023-11-21T20:01:09;8.57;;;2.97;;
29774;SDS011;16676;51.202;6.774;2023-11-21T20:05:11;6.07;;;3.00;;
29774;SDS011;16676;51.202;6.774;2023-11-21T20:09:15;5.97;;;3.50;;
29774;SDS011;16676;51.202;6.774;2023-11-21T20:13:17;4.57;;;2.55;;
29774;SDS011;16676;51.202;6.774;2023-11-21T20:17:20;5.25;;;2.85;;
29774;SDS011;16676;51.202;6.774;2023-11-21T20:21:22;5.20;;;2.83;;
29774;SDS011;16676;51.202;6.774;2023-11-21T20:25:26;6.13;;;2.67;;
29774;SDS011;16676;51.202;6.774;2023-11-21T20:29:29;4.15;;;2.58;;
29774;SDS011;16676;51.202;6.774;2023-11-21T20:33:33;4.38;;;2.42;;
29774;SDS011;16676;51.202;6.774;2023-11-21T20:37:35;5.40;;;2.88;;
29774;SDS011;16676;51.202;6.774;2023-11-21T20:41:39;8.40;;;5.25;;
29774;SDS011;16676;51.202;6.774;2023-11-21T20:45:41;6.45;;;4.32;;
29774;SDS011;16676;51.202;6.774;2023-11-21T20:49:44;6.47;;;4.10;;
29774;SDS011;16676;51.202;6.774;2023-11-21T20:53:46;8.98;;;4.00;;
29774;SDS011;16676;51.202;6.774;2023-11-21T20:57:48;7.68;;;3.50;;
29774;SDS011;16676;51.202;6.774;2023-11-21T21:01:50;7.57;;;3.50;;
29774;SDS011;16676;51.202;6.774;2023-11-21T21:05:53;7.45;;;3.63;;
29774;SDS011;16676;51.202;6.774;2023-11-21T21:09:55;8.05;;;3.50;;
29774;SDS011;16676;51.202;6.774;2023-11-21T21:13:59;8.75;;;3.13;;
29774;SDS011;16676;51.202;6.774;2023-11-21T21:18:01;7.90;;;3.00;;
29774;SDS011;16676;51.202;6.774;2023-11-21T21:22:06;6.07;;;2.90;;
29774;SDS011;16676;51.202;6.774;2023-11-21T21:26:08;4.95;;;3.13;;
29774;SDS011;16676;51.202;6.774;2023-11-21T21:30:11;4.60;;;2.70;;
29774;SDS011;16676;51.202;6.774;2023-11-21T21:34:13;5.05;;;2.85;;
29774;SDS011;16676;51.202;6.774;2023-11-21T21:38:18;5.63;;;2.58;;
29774;SDS011;16676;51.202;6.774;2023-11-21T21:42:20;6.68;;;2.60;;
29774;SDS011;16676;51.202;6.774;2023-11-21T21:46:22;4.57;;;2.60;;
29774;SDS011;16676;51.202;6.774;2023-11-21T21:50:24;4.68;;;2.95;;
29774;SDS011;16676;51.202;6.774;2023-11-21T21:54:30;3.13;;;2.47;;
29774;SDS011;16676;51.202;6.774;2023-11-21T21:58:32;4.43;;;2.85;;
29774;SDS011;16676;51.202;6.774;2023-11-21T22:02:35;6.07;;;3.08;;
29774;SDS011;16676;51.202;6.774;2023-11-21T22:06:37;3.85;;;2.55;;
29774;SDS011;16676;51.202;6.774;2023-11-21T22:10:40;5.55;;;2.65;;
29774;SDS011;16676;51.202;6.774;2023-11-21T22:14:42;6.63;;;2.83;;
29774;SDS011;16676;51.202;6.774;2023-11-21T22:18:45;3.30;;;2.60;;
29774;SDS011;16676;51.202;6.774;2023-11-21T22:22:47;6.55;;;2.83;;
29774;SDS011;16676;51.202;6.774;2023-11-21T22:26:50;4.45;;;2.45;;
29774;SDS011;16676;51.202;6.774;2023-11-21T22:30:52;5.28;;;2.78;;
29774;SDS011;16676;51.202;6.774;2023-11-21T22:34:54;6.15;;;2.90;;
29774;SDS011;16676;51.202;6.774;2023-11-21T22:38:57;4.85;;;2.60;;
29774;SDS011;16676;51.202;6.774;2023-11-21T22:43:00;4.55;;;2.67;;
29774;SDS011;16676;51.202;6.774;2023-11-21T22:47:02;5.03;;;2.35;;
29774;SDS011;16676;51.202;6.774;2023-11-21T22:51:04;4.68;;;2.85;;
29774;SDS011;16676;51.202;6.774;2023-11-21T22:55:06;4.10;;;2.60;;
29774;SDS011;16676;51.202;6.774;2023-11-21T22:59:10;5.47;;;2.70;;
29774;SDS011;16676;51.202;6.774;2023-11-21T23:03:12;5.07;;;2.75;;
29774;SDS011;16676;51.202;6.774;2023-11-21T23:07:14;5.07;;;2.35;;
29774;SDS011;16676;51.202;6.774;2023-11-21T23:11:17;4.13;;;2.55;;
29774;SDS011;16676;51.202;6.774;2023-11-21T23:15:20;4.47;;;2.95;;
29774;SDS011;16676;51.202;6.774;2023-11-21T23:19:23;4.30;;;2.58;;
29774;SDS011;16676;51.202;6.774;2023-11-21T23:23:25;4.45;;;2.90;;
29774;SDS011;16676;51.202;6.774;2023-11-21T23:27:28;5.60;;;2.63;;
29774;SDS011;16676;51.202;6.774;2023-11-21T23:31:31;3.70;;;2.45;;
29774;SDS011;16676;51.202;6.774;2023-11-21T23:35:33;3.80;;;2.13;;
29774;SDS011;16676;51.202;6.774;2023-11-21T23:39:35;4.47;;;2.33;;
29774;SDS011;16676;51.202;6.774;2023-11-21T23:43:37;4.53;;;2.78;;
29774;SDS011;16676;51.202;6.774;2023-11-21T23:47:41;3.90;;;2.20;;
29774;SDS011;16676;51.202;6.774;2023-11-21T23:51:43;3.17;;;2.10;;
29774;SDS011;16676;51.202;6.774;2023-11-21T23:55:45;3.45;;;2.50;;
29774;SDS011;16676;51.202;6.774;2023-11-21T23:59:49;3.65;;;2.63;;
